sensor_id;sensor_type;location;lat;lon;timestamp;P1;durP1;ratioP1;P2;durP2;ratioP2
8411;SDS011;4243;49.296;11.348;2022-11-15T00:02:23;117.80;;;3.03;;
8411;SDS011;4243;49.296;11.348;2022-11-15T00:05:09;118.93;;;2.97;;
8411;SDS011;4243;49.296;11.348;2022-11-15T00:07:56;119.00;;;3.00;;
8411;SDS011;4243;49.296;11.348;2022-11-15T00:10:42;118.80;;;3.00;;
8411;SDS011;4243;49.296;11.348;2022-11-15T00:13:28;119.47;;;2.90;;
8411;SDS011;4243;49.296;11.348;2022-11-15T00:16:15;119.30;;;2.93;;
8411;SDS011;4243;49.296;11.348;2022-11-15T00:19:01;119.20;;;3.00;;
8411;SDS011;4243;49.296;11.348;2022-11-15T00:21:47;119.20;;;3.00;;
8411;SDS011;4243;49.296;11.348;2022-11-15T00:24:33;119.67;;;3.07;;
8411;SDS011;4243;49.296;11.348;2022-11-15T00:27:19;119.10;;;3.00;;
8411;SDS011;4243;49.296;11.348;2022-11-15T00:30:05;119.07;;;2.90;;
8411;SDS011;4243;49.296;11.348;2022-11-15T00:32:51;119.20;;;3.00;;
8411;SDS011;4243;49.296;11.348;2022-11-15T00:35:36;118.67;;;2.87;;
8411;SDS011;4243;49.296;11.348;2022-11-15T00:38:22;118.70;;;2.83;;
8411;SDS011;4243;49.296;11.348;2022-11-15T00:41:07;119.10;;;2.87;;
8411;SDS011;4243;49.296;11.348;2022-11-15T00:43:54;120.00;;;2.90;;
8411;SDS011;4243;49.296;11.348;2022-11-15T00:46:40;119.33;;;2.90;;
8411;SDS011;4243;49.296;11.348;2022-11-15T00:49:25;119.20;;;2.90;;
8411;SDS011;4243;49.296;11.348;2022-11-15T00:52:11;119.87;;;3.00;;
8411;SDS011;4243;49.296;11.348;2022-11-15T00:54:56;119.97;;;3.00;;
8411;SDS011;4243;49.296;11.348;2022-11-15T00:57:43;120.07;;;3.00;;
8411;SDS011;4243;49.296;11.348;2022-11-15T01:00:30;118.80;;;2.90;;
8411;SDS011;4243;49.296;11.348;2022-11-15T01:03:15;119.07;;;2.97;;
8411;SDS011;4243;49.296;11.348;2022-11-15T01:06:01;119.67;;;2.90;;
8411;SDS011;4243;49.296;11.348;2022-11-15T01:08:47;119.43;;;2.90;;
8411;SDS011;4243;49.296;11.348;2022-11-15T01:11:34;119.43;;;2.87;;
8411;SDS011;4243;49.296;11.348;2022-11-15T01:14:19;119.87;;;2.87;;
8411;SDS011;4243;49.296;11.348;2022-11-15T01:17:09;120.27;;;2.90;;
8411;SDS011;4243;49.296;11.348;2022-11-15T01:19:55;119.80;;;2.87;;
8411;SDS011;4243;49.296;11.348;2022-11-15T01:22:41;119.23;;;2.97;;
8411;SDS011;4243;49.296;11.348;2022-11-15T01:25:27;119.80;;;2.90;;
8411;SDS011;4243;49.296;11.348;2022-11-15T01:28:13;119.37;;;3.00;;
8411;SDS011;4243;49.296;11.348;2022-11-15T01:30:59;120.37;;;3.03;;
8411;SDS011;4243;49.296;11.348;2022-11-15T01:33:48;119.03;;;2.90;;
8411;SDS011;4243;49.296;11.348;2022-11-15T01:36:34;120.47;;;3.13;;
8411;SDS011;4243;49.296;11.348;2022-11-15T01:39:20;119.77;;;3.00;;
8411;SDS011;4243;49.296;11.348;2022-11-15T01:42:08;119.70;;;3.10;;
8411;SDS011;4243;49.296;11.348;2022-11-15T01:44:58;119.47;;;2.90;;
8411;SDS011;4243;49.296;11.348;2022-11-15T01:47:48;119.60;;;2.97;;
8411;SDS011;4243;49.296;11.348;2022-11-15T01:50:40;119.40;;;2.93;;
8411;SDS011;4243;49.296;11.348;2022-11-15T01:53:26;119.40;;;2.97;;
8411;SDS011;4243;49.296;11.348;2022-11-15T01:56:18;119.67;;;2.90;;
8411;SDS011;4243;49.296;11.348;2022-11-15T01:59:11;120.07;;;2.97;;
8411;SDS011;4243;49.296;11.348;2022-11-15T02:01:57;119.80;;;2.90;;
8411;SDS011;4243;49.296;11.348;2022-11-15T02:04:45;119.97;;;2.87;;
8411;SDS011;4243;49.296;11.348;2022-11-15T02:07:32;119.33;;;3.00;;
8411;SDS011;4243;49.296;11.348;2022-11-15T02:10:21;119.77;;;3.10;;
8411;SDS011;4243;49.296;11.348;2022-11-15T02:13:08;118.97;;;2.97;;
8411;SDS011;4243;49.296;11.348;2022-11-15T02:16:09;120.13;;;2.97;;
8411;SDS011;4243;49.296;11.348;2022-11-15T02:26:36;119.40;;;2.87;;
8411;SDS011;4243;49.296;11.348;2022-11-15T02:30:21;118.67;;;2.83;;
8411;SDS011;4243;49.296;11.348;2022-11-15T02:33:26;119.70;;;2.90;;
8411;SDS011;4243;49.296;11.348;2022-11-15T02:36:54;119.63;;;2.90;;
8411;SDS011;4243;49.296;11.348;2022-11-15T02:40:13;119.87;;;2.90;;
8411;SDS011;4243;49.296;11.348;2022-11-15T02:43:28;119.20;;;3.00;;
8411;SDS011;4243;49.296;11.348;2022-11-15T02:49:58;119.87;;;2.93;;
8411;SDS011;4243;49.296;11.348;2022-11-15T02:52:50;119.60;;;2.87;;
8411;SDS011;4243;49.296;11.348;2022-11-15T02:55:38;119.53;;;2.97;;
8411;SDS011;4243;49.296;11.348;2022-11-15T02:58:35;119.87;;;3.03;;
8411;SDS011;4243;49.296;11.348;2022-11-15T03:02:13;119.80;;;3.03;;
8411;SDS011;4243;49.296;11.348;2022-11-15T03:06:09;119.50;;;2.93;;
8411;SDS011;4243;49.296;11.348;2022-11-15T03:15:29;119.73;;;2.90;;
8411;SDS011;4243;49.296;11.348;2022-11-15T03:18:26;119.40;;;2.90;;
8411;SDS011;4243;49.296;11.348;2022-11-15T03:21:44;119.47;;;3.00;;
8411;SDS011;4243;49.296;11.348;2022-11-15T03:24:33;119.40;;;2.87;;
8411;SDS011;4243;49.296;11.348;2022-11-15T03:27:24;119.30;;;2.90;;
8411;SDS011;4243;49.296;11.348;2022-11-15T03:30:18;119.77;;;2.90;;
8411;SDS011;4243;49.296;11.348;2022-11-15T03:33:04;120.07;;;2.93;;
8411;SDS011;4243;49.296;11.348;2022-11-15T03:35:50;119.27;;;2.90;;
8411;SDS011;4243;49.296;11.348;2022-11-15T03:38:39;119.90;;;2.97;;
8411;SDS011;4243;49.296;11.348;2022-11-15T03:45:02;119.20;;;2.87;;
8411;SDS011;4243;49.296;11.348;2022-11-15T03:48:18;119.20;;;2.83;;
8411;SDS011;4243;49.296;11.348;2022-11-15T03:51:12;119.03;;;3.00;;
8411;SDS011;4243;49.296;11.348;2022-11-15T03:53:59;119.00;;;2.93;;
8411;SDS011;4243;49.296;11.348;2022-11-15T03:56:49;119.37;;;3.00;;
8411;SDS011;4243;49.296;11.348;2022-11-15T03:59:35;119.03;;;2.90;;
8411;SDS011;4243;49.296;11.348;2022-11-15T04:02:21;119.13;;;2.87;;
8411;SDS011;4243;49.296;11.348;2022-11-15T04:05:07;120.07;;;2.97;;
8411;SDS011;4243;49.296;11.348;2022-11-15T04:07:53;119.50;;;2.93;;
8411;SDS011;4243;49.296;11.348;2022-11-15T04:10:39;119.20;;;3.00;;
8411;SDS011;4243;49.296;11.348;2022-11-15T04:13:25;119.57;;;3.00;;
8411;SDS011;4243;49.296;11.348;2022-11-15T04:16:11;119.50;;;2.90;;
8411;SDS011;4243;49.296;11.348;2022-11-15T04:18:57;119.97;;;2.90;;
8411;SDS011;4243;49.296;11.348;2022-11-15T04:22:01;119.40;;;2.90;;
8411;SDS011;4243;49.296;11.348;2022-11-15T04:25:06;119.50;;;2.90;;
8411;SDS011;4243;49.296;11.348;2022-11-15T04:27:51;119.57;;;2.83;;
8411;SDS011;4243;49.296;11.348;2022-11-15T04:30:38;119.77;;;2.90;;
8411;SDS011;4243;49.296;11.348;2022-11-15T04:33:24;119.50;;;2.90;;
8411;SDS011;4243;49.296;11.348;2022-11-15T04:36:10;119.60;;;2.93;;
8411;SDS011;4243;49.296;11.348;2022-11-15T04:39:14;119.00;;;2.90;;
8411;SDS011;4243;49.296;11.348;2022-11-15T04:42:00;119.13;;;2.90;;
8411;SDS011;4243;49.296;11.348;2022-11-15T04:44:46;119.70;;;3.00;;
8411;SDS011;4243;49.296;11.348;2022-11-15T04:47:32;119.00;;;2.97;;
8411;SDS011;4243;49.296;11.348;2022-11-15T04:50:18;119.10;;;3.00;;
8411;SDS011;4243;49.296;11.348;2022-11-15T04:53:04;119.50;;;3.00;;
8411;SDS011;4243;49.296;11.348;2022-11-15T04:55:51;116.47;;;2.93;;
8411;SDS011;4243;49.296;11.348;2022-11-15T04:58:36;119.00;;;2.93;;
8411;SDS011;4243;49.296;11.348;2022-11-15T05:01:22;119.47;;;2.90;;
8411;SDS011;4243;49.296;11.348;2022-11-15T05:04:09;119.17;;;2.90;;
8411;SDS011;4243;49.296;11.348;2022-11-15T05:07:04;119.33;;;3.10;;
8411;SDS011;4243;49.296;11.348;2022-11-15T05:09:50;118.87;;;3.03;;
8411;SDS011;4243;49.296;11.348;2022-11-15T05:12:36;119.27;;;3.00;;
8411;SDS011;4243;49.296;11.348;2022-11-15T05:15:22;119.50;;;3.10;;
8411;SDS011;4243;49.296;11.348;2022-11-15T05:18:08;119.37;;;3.00;;
8411;SDS011;4243;49.296;11.348;2022-11-15T05:20:54;119.20;;;3.00;;
8411;SDS011;4243;49.296;11.348;2022-11-15T05:23:40;119.27;;;3.13;;
8411;SDS011;4243;49.296;11.348;2022-11-15T05:26:26;119.57;;;3.03;;
8411;SDS011;4243;49.296;11.348;2022-11-15T05:29:12;119.10;;;3.10;;
8411;SDS011;4243;49.296;11.348;2022-11-15T05:31:58;119.17;;;3.20;;
8411;SDS011;4243;49.296;11.348;2022-11-15T05:34:44;119.60;;;3.17;;
8411;SDS011;4243;49.296;11.348;2022-11-15T05:37:31;119.30;;;3.33;;
8411;SDS011;4243;49.296;11.348;2022-11-15T05:40:17;119.90;;;3.17;;
8411;SDS011;4243;49.296;11.348;2022-11-15T05:43:02;117.47;;;3.13;;
8411;SDS011;4243;49.296;11.348;2022-11-15T05:45:50;118.30;;;3.10;;
8411;SDS011;4243;49.296;11.348;2022-11-15T05:48:36;119.30;;;3.13;;
8411;SDS011;4243;49.296;11.348;2022-11-15T05:51:28;119.87;;;3.17;;
8411;SDS011;4243;49.296;11.348;2022-11-15T05:54:15;116.40;;;3.10;;
8411;SDS011;4243;49.296;11.348;2022-11-15T05:57:02;119.33;;;3.17;;
8411;SDS011;4243;49.296;11.348;2022-11-15T05:59:49;119.63;;;3.20;;
8411;SDS011;4243;49.296;11.348;2022-11-15T06:02:35;119.20;;;3.20;;
8411;SDS011;4243;49.296;11.348;2022-11-15T06:05:21;119.50;;;3.20;;
8411;SDS011;4243;49.296;11.348;2022-11-15T06:08:07;119.50;;;3.20;;
8411;SDS011;4243;49.296;11.348;2022-11-15T06:10:52;119.70;;;3.13;;
8411;SDS011;4243;49.296;11.348;2022-11-15T06:13:38;118.90;;;3.17;;
8411;SDS011;4243;49.296;11.348;2022-11-15T06:16:24;118.47;;;3.17;;
8411;SDS011;4243;49.296;11.348;2022-11-15T06:19:10;119.37;;;3.10;;
8411;SDS011;4243;49.296;11.348;2022-11-15T06:21:56;119.67;;;3.10;;
8411;SDS011;4243;49.296;11.348;2022-11-15T06:24:42;118.70;;;3.13;;
8411;SDS011;4243;49.296;11.348;2022-11-15T06:27:28;115.93;;;3.10;;
8411;SDS011;4243;49.296;11.348;2022-11-15T06:30:14;119.27;;;3.20;;
8411;SDS011;4243;49.296;11.348;2022-11-15T06:33:04;119.37;;;3.20;;
8411;SDS011;4243;49.296;11.348;2022-11-15T06:35:50;119.10;;;3.13;;
8411;SDS011;4243;49.296;11.348;2022-11-15T06:38:36;118.17;;;3.20;;
8411;SDS011;4243;49.296;11.348;2022-11-15T06:41:21;119.00;;;3.17;;
8411;SDS011;4243;49.296;11.348;2022-11-15T06:44:07;119.00;;;3.20;;
8411;SDS011;4243;49.296;11.348;2022-11-15T06:46:53;119.57;;;3.20;;
8411;SDS011;4243;49.296;11.348;2022-11-15T06:49:38;119.57;;;3.20;;
8411;SDS011;4243;49.296;11.348;2022-11-15T06:52:24;118.83;;;3.20;;
8411;SDS011;4243;49.296;11.348;2022-11-15T06:55:10;118.90;;;3.13;;
8411;SDS011;4243;49.296;11.348;2022-11-15T06:57:55;119.03;;;3.13;;
8411;SDS011;4243;49.296;11.348;2022-11-15T07:00:41;119.17;;;3.13;;
8411;SDS011;4243;49.296;11.348;2022-11-15T07:03:27;119.57;;;3.17;;
8411;SDS011;4243;49.296;11.348;2022-11-15T07:06:14;118.70;;;3.07;;
8411;SDS011;4243;49.296;11.348;2022-11-15T07:09:01;119.17;;;3.07;;
8411;SDS011;4243;49.296;11.348;2022-11-15T07:11:47;119.10;;;3.13;;
8411;SDS011;4243;49.296;11.348;2022-11-15T07:14:33;118.80;;;3.17;;
8411;SDS011;4243;49.296;11.348;2022-11-15T07:17:19;118.70;;;3.20;;
8411;SDS011;4243;49.296;11.348;2022-11-15T07:20:06;118.17;;;3.13;;
8411;SDS011;4243;49.296;11.348;2022-11-15T07:22:59;118.60;;;3.10;;
8411;SDS011;4243;49.296;11.348;2022-11-15T07:25:47;119.17;;;3.00;;
8411;SDS011;4243;49.296;11.348;2022-11-15T07:28:32;117.73;;;2.97;;
8411;SDS011;4243;49.296;11.348;2022-11-15T07:31:19;118.57;;;3.00;;
8411;SDS011;4243;49.296;11.348;2022-11-15T07:34:04;118.10;;;2.93;;
8411;SDS011;4243;49.296;11.348;2022-11-15T07:36:49;118.80;;;2.90;;
8411;SDS011;4243;49.296;11.348;2022-11-15T07:39:36;118.43;;;3.00;;
8411;SDS011;4243;49.296;11.348;2022-11-15T07:42:21;118.50;;;3.03;;
8411;SDS011;4243;49.296;11.348;2022-11-15T07:45:25;117.57;;;2.90;;
8411;SDS011;4243;49.296;11.348;2022-11-15T07:48:11;117.37;;;3.07;;
8411;SDS011;4243;49.296;11.348;2022-11-15T07:50:57;117.87;;;2.93;;
8411;SDS011;4243;49.296;11.348;2022-11-15T07:53:43;118.50;;;3.00;;
8411;SDS011;4243;49.296;11.348;2022-11-15T07:56:29;116.03;;;2.93;;
8411;SDS011;4243;49.296;11.348;2022-11-15T07:59:14;118.90;;;2.90;;
8411;SDS011;4243;49.296;11.348;2022-11-15T08:02:00;117.77;;;2.97;;
8411;SDS011;4243;49.296;11.348;2022-11-15T08:04:46;118.30;;;2.80;;
8411;SDS011;4243;49.296;11.348;2022-11-15T08:07:32;119.17;;;2.80;;
8411;SDS011;4243;49.296;11.348;2022-11-15T08:10:17;118.87;;;2.90;;
8411;SDS011;4243;49.296;11.348;2022-11-15T08:13:06;118.50;;;2.90;;
8411;SDS011;4243;49.296;11.348;2022-11-15T08:15:59;118.37;;;2.80;;
8411;SDS011;4243;49.296;11.348;2022-11-15T08:18:46;119.27;;;2.80;;
8411;SDS011;4243;49.296;11.348;2022-11-15T08:21:32;118.73;;;2.80;;
8411;SDS011;4243;49.296;11.348;2022-11-15T08:24:18;118.27;;;2.80;;
8411;SDS011;4243;49.296;11.348;2022-11-15T08:27:05;119.10;;;2.73;;
8411;SDS011;4243;49.296;11.348;2022-11-15T08:29:59;119.07;;;2.73;;
8411;SDS011;4243;49.296;11.348;2022-11-15T08:32:44;119.47;;;2.77;;
8411;SDS011;4243;49.296;11.348;2022-11-15T08:35:30;118.50;;;2.80;;
8411;SDS011;4243;49.296;11.348;2022-11-15T08:38:16;118.70;;;2.80;;
8411;SDS011;4243;49.296;11.348;2022-11-15T08:41:03;118.13;;;2.80;;
8411;SDS011;4243;49.296;11.348;2022-11-15T08:43:50;119.57;;;2.80;;
8411;SDS011;4243;49.296;11.348;2022-11-15T08:46:36;119.43;;;2.80;;
8411;SDS011;4243;49.296;11.348;2022-11-15T08:49:22;118.80;;;2.73;;
8411;SDS011;4243;49.296;11.348;2022-11-15T08:52:07;117.90;;;2.77;;
8411;SDS011;4243;49.296;11.348;2022-11-15T08:54:53;117.57;;;2.70;;
8411;SDS011;4243;49.296;11.348;2022-11-15T08:57:39;119.00;;;2.67;;
8411;SDS011;4243;49.296;11.348;2022-11-15T09:03:49;118.97;;;2.60;;
8411;SDS011;4243;49.296;11.348;2022-11-15T09:06:35;118.37;;;2.70;;
8411;SDS011;4243;49.296;11.348;2022-11-15T09:09:26;118.67;;;2.80;;
8411;SDS011;4243;49.296;11.348;2022-11-15T09:12:12;118.77;;;2.77;;
8411;SDS011;4243;49.296;11.348;2022-11-15T09:14:58;118.87;;;2.70;;
8411;SDS011;4243;49.296;11.348;2022-11-15T09:17:44;119.60;;;2.80;;
8411;SDS011;4243;49.296;11.348;2022-11-15T09:20:31;119.70;;;2.70;;
8411;SDS011;4243;49.296;11.348;2022-11-15T09:23:18;118.97;;;2.63;;
8411;SDS011;4243;49.296;11.348;2022-11-15T09:26:04;118.20;;;2.57;;
8411;SDS011;4243;49.296;11.348;2022-11-15T09:28:50;119.87;;;2.73;;
8411;SDS011;4243;49.296;11.348;2022-11-15T09:31:36;119.37;;;2.63;;
8411;SDS011;4243;49.296;11.348;2022-11-15T09:34:22;118.67;;;2.67;;
8411;SDS011;4243;49.296;11.348;2022-11-15T09:37:08;118.27;;;2.53;;
8411;SDS011;4243;49.296;11.348;2022-11-15T09:39:53;119.80;;;2.60;;
8411;SDS011;4243;49.296;11.348;2022-11-15T09:49:08;119.87;;;3.00;;
8411;SDS011;4243;49.296;11.348;2022-11-15T09:51:59;118.37;;;3.00;;
8411;SDS011;4243;49.296;11.348;2022-11-15T09:54:29;119.40;;;3.40;;
8411;SDS011;4243;49.296;11.348;2022-11-15T09:57:22;119.70;;;3.37;;
8411;SDS011;4243;49.296;11.348;2022-11-15T10:00:09;119.43;;;3.43;;
8411;SDS011;4243;49.296;11.348;2022-11-15T10:03:16;118.33;;;3.47;;
8411;SDS011;4243;49.296;11.348;2022-11-15T10:06:01;118.57;;;3.33;;
8411;SDS011;4243;49.296;11.348;2022-11-15T10:08:34;118.40;;;2.80;;
8411;SDS011;4243;49.296;11.348;2022-11-15T10:11:31;118.27;;;2.60;;
8411;SDS011;4243;49.296;11.348;2022-11-15T10:14:08;117.73;;;2.30;;
8411;SDS011;4243;49.296;11.348;2022-11-15T10:20:02;117.50;;;2.20;;
8411;SDS011;4243;49.296;11.348;2022-11-15T10:22:58;116.40;;;2.20;;
8411;SDS011;4243;49.296;11.348;2022-11-15T10:25:29;117.07;;;2.20;;
8411;SDS011;4243;49.296;11.348;2022-11-15T10:28:01;116.90;;;2.00;;
8411;SDS011;4243;49.296;11.348;2022-11-15T10:30:45;116.67;;;2.20;;
8411;SDS011;4243;49.296;11.348;2022-11-15T10:41:15;115.50;;;2.00;;
8411;SDS011;4243;49.296;11.348;2022-11-15T10:44:02;115.80;;;1.83;;
8411;SDS011;4243;49.296;11.348;2022-11-15T10:49:25;115.37;;;1.90;;
8411;SDS011;4243;49.296;11.348;2022-11-15T10:51:56;114.37;;;2.27;;
8411;SDS011;4243;49.296;11.348;2022-11-15T10:54:47;115.43;;;2.10;;
8411;SDS011;4243;49.296;11.348;2022-11-15T10:57:48;114.53;;;1.70;;
8411;SDS011;4243;49.296;11.348;2022-11-15T11:03:00;112.07;;;1.90;;
8411;SDS011;4243;49.296;11.348;2022-11-15T11:06:05;112.27;;;1.73;;
8411;SDS011;4243;49.296;11.348;2022-11-15T11:08:40;112.47;;;1.60;;
8411;SDS011;4243;49.296;11.348;2022-11-15T11:11:45;111.57;;;1.50;;
8411;SDS011;4243;49.296;11.348;2022-11-15T11:14:21;113.17;;;1.63;;
8411;SDS011;4243;49.296;11.348;2022-11-15T11:17:48;113.63;;;1.70;;
8411;SDS011;4243;49.296;11.348;2022-11-15T11:20:25;112.43;;;2.30;;
8411;SDS011;4243;49.296;11.348;2022-11-15T11:24:02;113.20;;;2.70;;
8411;SDS011;4243;49.296;11.348;2022-11-15T11:30:14;113.07;;;2.10;;
8411;SDS011;4243;49.296;11.348;2022-11-15T11:33:08;112.77;;;1.80;;
8411;SDS011;4243;49.296;11.348;2022-11-15T11:48:00;113.30;;;1.90;;
8411;SDS011;4243;49.296;11.348;2022-11-15T11:50:47;113.87;;;1.87;;
8411;SDS011;4243;49.296;11.348;2022-11-15T11:53:21;113.97;;;1.80;;
8411;SDS011;4243;49.296;11.348;2022-11-15T11:56:16;113.57;;;1.83;;
8411;SDS011;4243;49.296;11.348;2022-11-15T11:59:00;114.07;;;1.97;;
8411;SDS011;4243;49.296;11.348;2022-11-15T12:01:54;112.27;;;2.00;;
8411;SDS011;4243;49.296;11.348;2022-11-15T12:04:30;113.07;;;1.90;;
8411;SDS011;4243;49.296;11.348;2022-11-15T12:07:08;113.10;;;1.87;;
8411;SDS011;4243;49.296;11.348;2022-11-15T12:12:30;114.37;;;1.80;;
8411;SDS011;4243;49.296;11.348;2022-11-15T12:15:16;113.87;;;1.80;;
8411;SDS011;4243;49.296;11.348;2022-11-15T12:17:51;114.23;;;1.90;;
8411;SDS011;4243;49.296;11.348;2022-11-15T12:20:22;114.50;;;1.80;;
8411;SDS011;4243;49.296;11.348;2022-11-15T12:23:11;113.70;;;1.90;;
8411;SDS011;4243;49.296;11.348;2022-11-15T12:26:05;113.90;;;1.90;;
8411;SDS011;4243;49.296;11.348;2022-11-15T12:28:51;114.10;;;1.90;;
8411;SDS011;4243;49.296;11.348;2022-11-15T12:34:04;114.30;;;1.80;;
8411;SDS011;4243;49.296;11.348;2022-11-15T12:36:49;113.97;;;1.80;;
8411;SDS011;4243;49.296;11.348;2022-11-15T12:39:17;112.37;;;1.70;;
8411;SDS011;4243;49.296;11.348;2022-11-15T12:52:04;113.17;;;1.90;;
8411;SDS011;4243;49.296;11.348;2022-11-15T13:02:40;114.17;;;1.90;;
8411;SDS011;4243;49.296;11.348;2022-11-15T13:12:57;116.67;;;1.83;;
8411;SDS011;4243;49.296;11.348;2022-11-15T13:15:33;116.97;;;1.90;;
8411;SDS011;4243;49.296;11.348;2022-11-15T13:18:30;116.00;;;1.90;;
8411;SDS011;4243;49.296;11.348;2022-11-15T13:21:19;116.27;;;1.90;;
8411;SDS011;4243;49.296;11.348;2022-11-15T13:26:42;116.17;;;1.90;;
8411;SDS011;4243;49.296;11.348;2022-11-15T13:29:14;115.97;;;1.90;;
8411;SDS011;4243;49.296;11.348;2022-11-15T13:31:45;116.27;;;1.80;;
8411;SDS011;4243;49.296;11.348;2022-11-15T13:34:15;115.97;;;1.73;;
8411;SDS011;4243;49.296;11.348;2022-11-15T13:39:49;115.60;;;1.80;;
8411;SDS011;4243;49.296;11.348;2022-11-15T13:42:18;115.67;;;1.80;;
8411;SDS011;4243;49.296;11.348;2022-11-15T13:44:57;115.53;;;1.70;;
8411;SDS011;4243;49.296;11.348;2022-11-15T13:47:28;115.57;;;1.70;;
8411;SDS011;4243;49.296;11.348;2022-11-15T13:49:58;114.87;;;1.70;;
8411;SDS011;4243;49.296;11.348;2022-11-15T13:52:28;115.17;;;1.70;;
8411;SDS011;4243;49.296;11.348;2022-11-15T13:55:04;115.77;;;1.67;;
8411;SDS011;4243;49.296;11.348;2022-11-15T13:57:54;115.70;;;1.70;;
8411;SDS011;4243;49.296;11.348;2022-11-15T14:08:39;117.07;;;2.30;;
8411;SDS011;4243;49.296;11.348;2022-11-15T14:11:29;117.27;;;2.43;;
8411;SDS011;4243;49.296;11.348;2022-11-15T14:16:39;117.17;;;2.63;;
8411;SDS011;4243;49.296;11.348;2022-11-15T14:19:33;118.10;;;2.63;;
8411;SDS011;4243;49.296;11.348;2022-11-15T14:22:10;118.00;;;2.67;;
8411;SDS011;4243;49.296;11.348;2022-11-15T14:25:06;118.97;;;2.77;;
8411;SDS011;4243;49.296;11.348;2022-11-15T14:31:04;119.27;;;3.00;;
8411;SDS011;4243;49.296;11.348;2022-11-15T14:33:39;118.60;;;2.63;;
8411;SDS011;4243;49.296;11.348;2022-11-15T14:38:46;118.70;;;2.60;;
8411;SDS011;4243;49.296;11.348;2022-11-15T14:41:18;117.97;;;2.57;;
8411;SDS011;4243;49.296;11.348;2022-11-15T14:43:50;119.20;;;2.60;;
8411;SDS011;4243;49.296;11.348;2022-11-15T14:46:19;118.07;;;2.57;;
8411;SDS011;4243;49.296;11.348;2022-11-15T14:48:46;118.30;;;2.50;;
8411;SDS011;4243;49.296;11.348;2022-11-15T14:51:14;118.50;;;2.60;;
8411;SDS011;4243;49.296;11.348;2022-11-15T14:53:44;118.50;;;2.60;;
8411;SDS011;4243;49.296;11.348;2022-11-15T14:56:13;118.70;;;2.40;;
8411;SDS011;4243;49.296;11.348;2022-11-15T14:58:42;119.40;;;2.60;;
8411;SDS011;4243;49.296;11.348;2022-11-15T15:01:12;119.60;;;2.60;;
8411;SDS011;4243;49.296;11.348;2022-11-15T15:03:46;119.50;;;2.50;;
8411;SDS011;4243;49.296;11.348;2022-11-15T15:06:13;119.50;;;2.60;;
8411;SDS011;4243;49.296;11.348;2022-11-15T15:08:44;119.17;;;2.70;;
8411;SDS011;4243;49.296;11.348;2022-11-15T15:11:14;119.53;;;2.70;;
8411;SDS011;4243;49.296;11.348;2022-11-15T15:13:56;119.57;;;2.60;;
8411;SDS011;4243;49.296;11.348;2022-11-15T15:16:27;118.20;;;2.70;;
8411;SDS011;4243;49.296;11.348;2022-11-15T15:18:54;119.37;;;2.77;;
8411;SDS011;4243;49.296;11.348;2022-11-15T15:21:25;120.60;;;2.70;;
8411;SDS011;4243;49.296;11.348;2022-11-15T15:24:02;119.37;;;2.73;;
8411;SDS011;4243;49.296;11.348;2022-11-15T15:26:30;120.57;;;2.63;;
8411;SDS011;4243;49.296;11.348;2022-11-15T15:29:00;119.67;;;2.70;;
8411;SDS011;4243;49.296;11.348;2022-11-15T15:31:27;119.50;;;2.80;;
8411;SDS011;4243;49.296;11.348;2022-11-15T15:33:54;120.83;;;2.80;;
8411;SDS011;4243;49.296;11.348;2022-11-15T15:36:22;120.90;;;2.77;;
8411;SDS011;4243;49.296;11.348;2022-11-15T15:38:49;121.77;;;2.70;;
8411;SDS011;4243;49.296;11.348;2022-11-15T15:41:16;121.33;;;2.90;;
8411;SDS011;4243;49.296;11.348;2022-11-15T15:43:43;120.10;;;2.90;;
8411;SDS011;4243;49.296;11.348;2022-11-15T15:46:11;120.20;;;3.00;;
8411;SDS011;4243;49.296;11.348;2022-11-15T15:48:43;122.30;;;3.17;;
8411;SDS011;4243;49.296;11.348;2022-11-15T15:51:11;121.77;;;3.10;;
8411;SDS011;4243;49.296;11.348;2022-11-15T15:53:46;121.47;;;3.00;;
8411;SDS011;4243;49.296;11.348;2022-11-15T15:56:13;122.13;;;2.90;;
8411;SDS011;4243;49.296;11.348;2022-11-15T15:58:41;121.90;;;3.10;;
8411;SDS011;4243;49.296;11.348;2022-11-15T16:01:08;121.27;;;3.10;;
8411;SDS011;4243;49.296;11.348;2022-11-15T16:03:35;121.93;;;3.10;;
8411;SDS011;4243;49.296;11.348;2022-11-15T16:06:02;121.50;;;3.10;;
8411;SDS011;4243;49.296;11.348;2022-11-15T16:08:31;121.47;;;3.10;;
8411;SDS011;4243;49.296;11.348;2022-11-15T16:11:18;121.90;;;3.10;;
8411;SDS011;4243;49.296;11.348;2022-11-15T16:13:45;120.50;;;3.00;;
8411;SDS011;4243;49.296;11.348;2022-11-15T16:16:12;120.90;;;3.00;;
8411;SDS011;4243;49.296;11.348;2022-11-15T16:18:47;120.07;;;2.90;;
8411;SDS011;4243;49.296;11.348;2022-11-15T16:21:14;120.80;;;2.83;;
8411;SDS011;4243;49.296;11.348;2022-11-15T16:23:41;120.80;;;2.80;;
8411;SDS011;4243;49.296;11.348;2022-11-15T16:26:20;120.87;;;2.83;;
8411;SDS011;4243;49.296;11.348;2022-11-15T16:28:54;121.67;;;2.87;;
8411;SDS011;4243;49.296;11.348;2022-11-15T16:31:21;121.03;;;2.70;;
8411;SDS011;4243;49.296;11.348;2022-11-15T16:33:49;121.20;;;2.80;;
8411;SDS011;4243;49.296;11.348;2022-11-15T16:38:55;120.70;;;2.67;;
8411;SDS011;4243;49.296;11.348;2022-11-15T16:41:23;120.67;;;2.80;;
8411;SDS011;4243;49.296;11.348;2022-11-15T16:43:51;121.27;;;2.77;;
8411;SDS011;4243;49.296;11.348;2022-11-15T16:46:18;120.37;;;2.80;;
8411;SDS011;4243;49.296;11.348;2022-11-15T16:48:52;121.30;;;2.77;;
8411;SDS011;4243;49.296;11.348;2022-11-15T16:51:20;120.37;;;2.90;;
8411;SDS011;4243;49.296;11.348;2022-11-15T16:53:48;121.47;;;2.97;;
8411;SDS011;4243;49.296;11.348;2022-11-15T16:56:21;121.47;;;2.83;;
8411;SDS011;4243;49.296;11.348;2022-11-15T16:58:56;120.57;;;2.83;;
8411;SDS011;4243;49.296;11.348;2022-11-15T17:01:32;120.53;;;2.80;;
8411;SDS011;4243;49.296;11.348;2022-11-15T17:04:12;121.10;;;2.80;;
8411;SDS011;4243;49.296;11.348;2022-11-15T17:06:42;121.30;;;2.87;;
8411;SDS011;4243;49.296;11.348;2022-11-15T17:09:13;119.97;;;2.90;;
8411;SDS011;4243;49.296;11.348;2022-11-15T17:11:45;120.90;;;2.90;;
8411;SDS011;4243;49.296;11.348;2022-11-15T17:14:12;120.10;;;2.93;;
8411;SDS011;4243;49.296;11.348;2022-11-15T17:16:39;121.77;;;2.90;;
8411;SDS011;4243;49.296;11.348;2022-11-15T17:19:16;121.10;;;3.10;;
8411;SDS011;4243;49.296;11.348;2022-11-15T17:21:46;120.93;;;2.90;;
8411;SDS011;4243;49.296;11.348;2022-11-15T17:24:14;121.77;;;3.10;;
8411;SDS011;4243;49.296;11.348;2022-11-15T17:26:42;118.77;;;3.03;;
8411;SDS011;4243;49.296;11.348;2022-11-15T17:29:09;120.90;;;2.90;;
8411;SDS011;4243;49.296;11.348;2022-11-15T17:31:37;121.00;;;3.00;;
8411;SDS011;4243;49.296;11.348;2022-11-15T17:34:04;120.70;;;2.93;;
8411;SDS011;4243;49.296;11.348;2022-11-15T17:36:32;121.03;;;2.90;;
8411;SDS011;4243;49.296;11.348;2022-11-15T17:39:00;120.70;;;2.90;;
8411;SDS011;4243;49.296;11.348;2022-11-15T17:41:28;120.67;;;2.90;;
8411;SDS011;4243;49.296;11.348;2022-11-15T17:43:56;119.53;;;2.97;;
8411;SDS011;4243;49.296;11.348;2022-11-15T17:46:25;120.60;;;2.87;;
8411;SDS011;4243;49.296;11.348;2022-11-15T17:48:54;119.20;;;2.80;;
8411;SDS011;4243;49.296;11.348;2022-11-15T17:51:22;121.27;;;2.90;;
8411;SDS011;4243;49.296;11.348;2022-11-15T17:53:50;120.40;;;2.80;;
8411;SDS011;4243;49.296;11.348;2022-11-15T17:56:19;120.00;;;2.80;;
8411;SDS011;4243;49.296;11.348;2022-11-15T17:58:50;120.60;;;2.90;;
8411;SDS011;4243;49.296;11.348;2022-11-15T18:01:24;120.10;;;2.90;;
8411;SDS011;4243;49.296;11.348;2022-11-15T18:03:58;120.07;;;2.77;;
8411;SDS011;4243;49.296;11.348;2022-11-15T18:06:28;120.43;;;2.90;;
8411;SDS011;4243;49.296;11.348;2022-11-15T18:08:58;120.80;;;2.90;;